Ferrara, Italy

12:20 PM CEST on August 02, 2015 (GMT +0200)
IFERRARA7 | | Change Station
CLOSE
Current Station
Personal Weather Station
Location: Cocomaro di Cona, FERRARA
Elevation: 27 ft
Nearby Weather Stations

Elev 27 ft 44.81 °N, 11.68 °E | Updated 5 minutes ago

Mostly Cloudy
Mostly Cloudy
76.4 °F
Feels Like 78 °F
N
3.0
Wind Variable Wind from NW

Today
High -- | Low -- °F
--% Chance of Precip.
Yesterday
High -- | Low -- °F
Precip. -- in
5:59 AM 8:38 PM
Waning Gibbous, 94% visible
Pressure 30.04 in
Visibility 6.2 miles
Clouds Mostly Cloudy 2500 ft
Heat Index 78 °F
Dew Point 65 °F
Humidity 68%
Rainfall 0.01 in
Snow Depth Not available.
UV 5 out of 12
Pollen Not available.
Air Quality Not available.
Flu Activity Not available.
METAR LIPF 020955Z 28001KT 9999 BKN025 26/20 Q1017 RMK BKN VIS MIN 9999

More Conditions Fewer Conditions

Pressure 30.04 in
Visibility 6.2 miles
Clouds Mostly Cloudy 2500 ft
Heat Index 78 °F
Dew Point 65 °F
Humidity 68%
Rainfall 0.01 in
Snow Depth Not available.
UV 5 out of 12
Pollen Not available.
Air Quality Not available.
Flu Activity Not available.
METAR LIPF 020955Z 28001KT 9999 BKN025 26/20 Q1017 RMK BKN VIS MIN 9999

More Conditions Fewer Conditions

10-Day Weather Forecast

×

Almanac

Astronomy

Aug. 02, 2015 Rise Set
Actual Time
Civil Twilight
Nautical Twilight
Astronomical Twilight
Moon
Length of Visible Light
Length of Day
Tomorrow will be .
, % of the Moon is Illuminated

Today's Extremes

Country Highs Country Lows

Community

WunderPhotos

Upload Photos

1,843,214 photos uploaded!

WunderBlogs® & News

Nearby

Air Quality

  Air Quality AQ Index Pollutant
Not available.

Snow Depth

Station Depth Elevation

Earthquake Activity

City Distance Mag. Time & Date
Minimum magnitude displayed is 2.5.

Coastal Water Temperatures

Place Temperature

Stations

Nearby Weather Stations

Station Location Temp. Windchill Dew Point Humidity Wind Precip. Elev Updated Type